sensor_id;sensor_type;location;lat;lon;timestamp;P1;P2;P0
76043;PMS7003;64740;34.694;33.088;2023-04-01T00:01:20;3.1;2.7;2.3
76043;PMS7003;64740;34.694;33.088;2023-04-01T00:06:38;2.5;2.4;2
76043;PMS7003;64740;34.694;33.088;2023-04-01T00:11:22;2.7;2.1;1.8
76043;PMS7003;64740;34.694;33.088;2023-04-01T00:16:20;2.7;2.1;1.8
76043;PMS7003;64740;34.694;33.088;2023-04-01T00:21:38;2.4;2.3;1.9
76043;PMS7003;64740;34.694;33.088;2023-04-01T00:25:58;2.6;2;1.7
76043;PMS7003;64740;34.694;33.088;2023-04-01T00:31:38;2.5;2.2;1.8
76043;PMS7003;64740;34.694;33.088;2023-04-01T00:36:22;2.4;2.4;1.8
76043;PMS7003;64740;34.694;33.088;2023-04-01T00:41:03;2.4;2.1;1.8
76043;PMS7003;64740;34.694;33.088;2023-04-01T00:46:36;2.3;2;1.7
76043;PMS7003;64740;34.694;33.088;2023-04-01T00:51:16;2.3;2;1.6
76043;PMS7003;64740;34.694;33.088;2023-04-01T00:56:37;2.6;2.1;1.7
76043;PMS7003;64740;34.694;33.088;2023-04-01T01:01:21;2.7;2.2;1.7
76043;PMS7003;64740;34.694;33.088;2023-04-01T01:06:08;2.7;1.9;1.6
76043;PMS7003;64740;34.694;33.088;2023-04-01T01:11:37;2.6;2;1.5
76043;PMS7003;64740;34.694;33.088;2023-04-01T01:16:17;2;1.8;1.5
76043;PMS7003;64740;34.694;33.088;2023-04-01T01:21:42;2.3;1.8;1.6
76043;PMS7003;64740;34.694;33.088;2023-04-01T01:26:24;2.6;2.1;1.7
76043;PMS7003;64740;34.694;33.088;2023-04-01T01:31:21;2.1;2.1;1.8
76043;PMS7003;64740;34.694;33.088;2023-04-01T01:36:36;2;2;1.6
76043;PMS7003;64740;34.694;33.088;2023-04-01T01:41:28;2.9;2.2;1.8
76043;PMS7003;64740;34.694;33.088;2023-04-01T01:46:26;2;1.8;1.5
76043;PMS7003;64740;34.694;33.088;2023-04-01T01:51:22;3.1;2.3;1.9
76043;PMS7003;64740;34.694;33.088;2023-04-01T01:55:56;2;1.9;1.5
76043;PMS7003;64740;34.694;33.088;2023-04-01T02:01:37;2.2;1.8;1.5
76043;PMS7003;64740;34.694;33.088;2023-04-01T02:06:21;2.5;1.9;1.5
76043;PMS7003;64740;34.694;33.088;2023-04-01T02:11:27;2.2;1.8;1.4
76043;PMS7003;64740;34.694;33.088;2023-04-01T02:16:38;2.1;1.9;1.6
76043;PMS7003;64740;34.694;33.088;2023-04-01T02:20:57;2.6;2.2;1.7
76043;PMS7003;64740;34.694;33.088;2023-04-01T02:26:36;2.4;2;1.6
76043;PMS7003;64740;34.694;33.088;2023-04-01T02:31:14;1.6;1.6;1.4
76043;PMS7003;64740;34.694;33.088;2023-04-01T02:36:30;1.8;1.8;1.6
76043;PMS7003;64740;34.694;33.088;2023-04-01T02:41:40;2.3;2;1.6
76043;PMS7003;64740;34.694;33.088;2023-04-01T02:46:36;2.5;1.8;1.5
76043;PMS7003;64740;34.694;33.088;2023-04-01T02:51:37;1.8;1.7;1.5
76043;PMS7003;64740;34.694;33.088;2023-04-01T02:56:14;1.7;1.6;1.4
76043;PMS7003;64740;34.694;33.088;2023-04-01T03:01:26;2.2;2;1.6
76043;PMS7003;64740;34.694;33.088;2023-04-01T03:06:36;1.8;1.8;1.4
76043;PMS7003;64740;34.694;33.088;2023-04-01T03:10:56;2.3;1.8;1.4
76043;PMS7003;64740;34.694;33.088;2023-04-01T03:16:36;1.5;1.4;1.2
76043;PMS7003;64740;34.694;33.088;2023-04-01T03:20:56;2.4;2.1;1.7
76043;PMS7003;64740;34.694;33.088;2023-04-01T03:26:26;2.5;2.3;1.9
76043;PMS7003;64740;34.694;33.088;2023-04-01T03:31:36;2.8;2.2;1.9
76043;PMS7003;64740;34.694;33.088;2023-04-01T03:36:14;2.4;2.2;1.7
76043;PMS7003;64740;34.694;33.088;2023-04-01T03:41:36;2;2;1.7
76043;PMS7003;64740;34.694;33.088;2023-04-01T03:46:16;2.7;2;1.7
76043;PMS7003;64740;34.694;33.088;2023-04-01T03:51:26;2;1.7;1.3
76043;PMS7003;64740;34.694;33.088;2023-04-01T03:56:37;2.6;2.1;1.7
76043;PMS7003;64740;34.694;33.088;2023-04-01T04:00:56;2.6;2;1.7
76043;PMS7003;64740;34.694;33.088;2023-04-01T04:06:36;2.5;2;1.8
76043;PMS7003;64740;34.694;33.088;2023-04-01T04:11:04;2.5;1.9;1.6
76043;PMS7003;64740;34.694;33.088;2023-04-01T04:16:26;3;2.1;1.7
76043;PMS7003;64740;34.694;33.088;2023-04-01T04:21:36;3.2;2.4;2
76043;PMS7003;64740;34.694;33.088;2023-04-01T04:25:57;2.4;1.9;1.7
76043;PMS7003;64740;34.694;33.088;2023-04-01T04:31:36;2.7;2.1;2
76043;PMS7003;64740;34.694;33.088;2023-04-01T04:36:07;1.9;1.5;1.3
76043;PMS7003;64740;34.694;33.088;2023-04-01T04:41:24;2.5;2.3;1.8
76043;PMS7003;64740;34.694;33.088;2023-04-01T04:46:36;2.8;2.1;1.8
76043;PMS7003;64740;34.694;33.088;2023-04-01T04:50:56;2.5;2.2;1.9
76043;PMS7003;64740;34.694;33.088;2023-04-01T04:56:36;2.7;2.2;1.8
76043;PMS7003;64740;34.694;33.088;2023-04-01T05:01:08;3.4;2.2;1.8
76043;PMS7003;64740;34.694;33.088;2023-04-01T05:06:26;2.1;1.8;1.4
76043;PMS7003;64740;34.694;33.088;2023-04-01T05:11:36;2.4;1.9;1.5
76043;PMS7003;64740;34.694;33.088;2023-04-01T05:16:07;2.4;2.1;1.8
76043;PMS7003;64740;34.694;33.088;2023-04-01T05:21:36;2.9;2.5;2.1
76043;PMS7003;64740;34.694;33.088;2023-04-01T05:26:36;3;2.5;2
76043;PMS7003;64740;34.694;33.088;2023-04-01T05:31:26;3.4;3;2.2
76043;PMS7003;64740;34.694;33.088;2023-04-01T05:36:22;3.1;2.6;2.2
76043;PMS7003;64740;34.694;33.088;2023-04-01T05:40:58;2.1;1.8;1.5
76043;PMS7003;64740;34.694;33.088;2023-04-01T05:46:02;2.8;2.3;1.9
76043;PMS7003;64740;34.694;33.088;2023-04-01T05:51:28;3.2;2.8;2.1
76043;PMS7003;64740;34.694;33.088;2023-04-01T05:56:34;2.3;2.1;1.7
76043;PMS7003;64740;34.694;33.088;2023-04-01T06:01:28;2.6;2;1.6
76043;PMS7003;64740;34.694;33.088;2023-04-01T06:05:56;2.9;2.5;2
76043;PMS7003;64740;34.694;33.088;2023-04-01T06:11:17;3.1;2.6;2.1
76043;PMS7003;64740;34.694;33.088;2023-04-01T06:16:31;3.6;2.4;1.9
76043;PMS7003;64740;34.694;33.088;2023-04-01T06:22:45;2.9;2.3;1.9
76043;PMS7003;64740;34.694;33.088;2023-04-01T06:26:30;2.6;2.2;1.7
76043;PMS7003;64740;34.694;33.088;2023-04-01T06:30:57;2.3;2;1.6
76043;PMS7003;64740;34.694;33.088;2023-04-01T06:36:15;3;2.6;2
76043;PMS7003;64740;34.694;33.088;2023-04-01T06:41:44;2.7;2.2;1.7
76043;PMS7003;64740;34.694;33.088;2023-04-01T06:46:30;2.4;2.2;1.7
76043;PMS7003;64740;34.694;33.088;2023-04-01T06:51:28;2.7;2;1.7
76043;PMS7003;64740;34.694;33.088;2023-04-01T06:55:57;2.3;2.2;1.8
76043;PMS7003;64740;34.694;33.088;2023-04-01T07:00:57;2.2;2.1;1.5
76043;PMS7003;64740;34.694;33.088;2023-04-01T07:06:30;2.4;2;1.7
76043;PMS7003;64740;34.694;33.088;2023-04-01T07:11:37;3.1;2.3;1.9
76043;PMS7003;64740;34.694;33.088;2023-04-01T07:16:29;2.3;2.1;1.7
76043;PMS7003;64740;34.694;33.088;2023-04-01T07:21:31;3.2;2.3;2.1
76043;PMS7003;64740;34.694;33.088;2023-04-01T07:25:58;2.6;2.4;2
76043;PMS7003;64740;34.694;33.088;2023-04-01T07:31:25;3.2;2.6;2.1
76043;PMS7003;64740;34.694;33.088;2023-04-01T07:36:32;2.8;2.4;1.9
76043;PMS7003;64740;34.694;33.088;2023-04-01T07:41:30;2.9;2.2;1.9
76043;PMS7003;64740;34.694;33.088;2023-04-01T07:45:58;3.2;2.5;2
76043;PMS7003;64740;34.694;33.088;2023-04-01T07:50:58;3;2.5;2.1
76043;PMS7003;64740;34.694;33.088;2023-04-01T07:56:30;3.2;2.3;1.9
76043;PMS7003;64740;34.694;33.088;2023-04-01T08:01:39;3.7;2.7;2.3
76043;PMS7003;64740;34.694;33.088;2023-04-01T08:06:30;3.6;3.2;2.6
76043;PMS7003;64740;34.694;33.088;2023-04-01T08:10:57;3.2;2.5;2.1
76043;PMS7003;64740;34.694;33.088;2023-04-01T08:15:57;3.2;2.3;1.9
76043;PMS7003;64740;34.694;33.088;2023-04-01T08:21:30;3.2;2.7;2.2
76043;PMS7003;64740;34.694;33.088;2023-04-01T08:26:37;3;2;1.5
76043;PMS7003;64740;34.694;33.088;2023-04-01T08:30:58;3;2;1.5
76043;PMS7003;64740;34.694;33.088;2023-04-01T08:36:13;3.5;2.4;1.7
76043;PMS7003;64740;34.694;33.088;2023-04-01T08:41:20;3.2;2.2;1.5
76043;PMS7003;64740;34.694;33.088;2023-04-01T08:46:35;3.9;2.5;1.7
76043;PMS7003;64740;34.694;33.088;2023-04-01T08:51:55;2.5;1.9;1.4
76043;PMS7003;64740;34.694;33.088;2023-04-01T08:56:27;2.5;2;1.3
76043;PMS7003;64740;34.694;33.088;2023-04-01T09:01:11;3.1;1.9;1.2
76043;PMS7003;64740;34.694;33.088;2023-04-01T09:07:24;3.3;2;1.4
76043;PMS7003;64740;34.694;33.088;2023-04-01T09:11:34;2.7;1.8;1.2
76043;PMS7003;64740;34.694;33.088;2023-04-01T09:16:44;3.5;2.2;1.6
76043;PMS7003;64740;34.694;33.088;2023-04-01T09:21:34;2.8;1.9;1.2
76043;PMS7003;64740;34.694;33.088;2023-04-01T09:27:11;3.4;2;1.5
76043;PMS7003;64740;34.694;33.088;2023-04-01T09:31:03;3.2;2;1.1
76043;PMS7003;64740;34.694;33.088;2023-04-01T09:36:35;3.6;1.9;1.5
76043;PMS7003;64740;34.694;33.088;2023-04-01T09:41:39;2.2;1.7;1.2
76043;PMS7003;64740;34.694;33.088;2023-04-01T09:46:35;3.2;2.3;1.6
76043;PMS7003;64740;34.694;33.088;2023-04-01T09:51:01;2.9;1.8;1.1
76043;PMS7003;64740;34.694;33.088;2023-04-01T09:56:23;3.5;2;1.4
76043;PMS7003;64740;34.694;33.088;2023-04-01T10:11:41;3.6;2.2;1.4
76043;PMS7003;64740;34.694;33.088;2023-04-01T10:21:03;3.5;2.1;1.4
76043;PMS7003;64740;34.694;33.088;2023-04-01T10:26:04;3.1;2;1.6
76043;PMS7003;64740;34.694;33.088;2023-04-01T10:31:45;3;1.8;1.4
76043;PMS7003;64740;34.694;33.088;2023-04-01T10:36:14;3.6;2.3;1.4
76043;PMS7003;64740;34.694;33.088;2023-04-01T10:41:26;2.4;1.9;1.3
76043;PMS7003;64740;34.694;33.088;2023-04-01T10:51:32;2.8;2;1.2
76043;PMS7003;64740;34.694;33.088;2023-04-01T10:56:38;3;1.7;1.1
76043;PMS7003;64740;34.694;33.088;2023-04-01T11:01:41;2.4;1.7;1.3
76043;PMS7003;64740;34.694;33.088;2023-04-01T11:06:30;3.7;2.1;1.4
76043;PMS7003;64740;34.694;33.088;2023-04-01T11:16:10;2.5;1.9;1.3
76043;PMS7003;64740;34.694;33.088;2023-04-01T11:21:44;3.5;2;1.3
76043;PMS7003;64740;34.694;33.088;2023-04-01T11:26:32;2.4;1.6;1
76043;PMS7003;64740;34.694;33.088;2023-04-01T11:31:02;3.2;2;1.4
76043;PMS7003;64740;34.694;33.088;2023-04-01T11:36:37;3;2;1.2
76043;PMS7003;64740;34.694;33.088;2023-04-01T11:40:59;3.9;2.1;1.3
76043;PMS7003;64740;34.694;33.088;2023-04-01T11:46:38;2.6;1.8;1.2
76043;PMS7003;64740;34.694;33.088;2023-04-01T11:52:03;2.1;1.3;0.9
76043;PMS7003;64740;34.694;33.088;2023-04-01T11:56:02;2.3;1.3;0.9
76043;PMS7003;64740;34.694;33.088;2023-04-01T12:01:16;1.7;1.3;0.9
76043;PMS7003;64740;34.694;33.088;2023-04-01T12:06:29;2.1;1.4;0.9
76043;PMS7003;64740;34.694;33.088;2023-04-01T12:11:39;2;1.5;1
76043;PMS7003;64740;34.694;33.088;2023-04-01T12:16:33;2.1;1.5;1.2
76043;PMS7003;64740;34.694;33.088;2023-04-01T12:21:09;2.7;1.9;1.2
76043;PMS7003;64740;34.694;33.088;2023-04-01T12:26:22;2.3;1.6;1
76043;PMS7003;64740;34.694;33.088;2023-04-01T12:31:07;2.9;1.7;1
76043;PMS7003;64740;34.694;33.088;2023-04-01T12:36:37;3.2;1.9;1.4
76043;PMS7003;64740;34.694;33.088;2023-04-01T12:41:29;2.3;1.6;1
76043;PMS7003;64740;34.694;33.088;2023-04-01T12:45:58;2.9;1.4;0.9
76043;PMS7003;64740;34.694;33.088;2023-04-01T12:51:20;2.1;1.5;1.2
76043;PMS7003;64740;34.694;33.088;2023-04-01T12:55:57;3.7;2.6;2
76043;PMS7003;64740;34.694;33.088;2023-04-01T13:01:45;2.2;1.6;1.1
76043;PMS7003;64740;34.694;33.088;2023-04-01T13:06:32;2;1.4;0.9
76043;PMS7003;64740;34.694;33.088;2023-04-01T13:11:08;2.3;1.3;0.8
76043;PMS7003;64740;34.694;33.088;2023-04-01T13:16:15;2.2;1.4;0.8
76043;PMS7003;64740;34.694;33.088;2023-04-01T13:21:01;2.1;1.3;0.8
76043;PMS7003;64740;34.694;33.088;2023-04-01T13:26:38;3;1.8;1.1
76043;PMS7003;64740;34.694;33.088;2023-04-01T13:31:34;1.7;1.5;0.9
76043;PMS7003;64740;34.694;33.088;2023-04-01T13:35:58;2.1;1.2;0.7
76043;PMS7003;64740;34.694;33.088;2023-04-01T13:41:18;2.2;1.2;0.7
76043;PMS7003;64740;34.694;33.088;2023-04-01T13:46:21;2.8;2;1.4
76043;PMS7003;64740;34.694;33.088;2023-04-01T13:51:46;2.2;1.2;0.9
76043;PMS7003;64740;34.694;33.088;2023-04-01T13:56:33;2.1;1.2;0.9
76043;PMS7003;64740;34.694;33.088;2023-04-01T14:01:02;2.7;1;0.6
76043;PMS7003;64740;34.694;33.088;2023-04-01T14:06:20;2.7;1.4;1
76043;PMS7003;64740;34.694;33.088;2023-04-01T14:11:10;1.4;1;0.6
76043;PMS7003;64740;34.694;33.088;2023-04-01T14:16:36;1.6;1.2;0.9
76043;PMS7003;64740;34.694;33.088;2023-04-01T14:21:40;2.1;1.2;0.9
76043;PMS7003;64740;34.694;33.088;2023-04-01T14:26:35;1.6;1.3;1
76043;PMS7003;64740;34.694;33.088;2023-04-01T14:31:18;2.5;1.8;1.5
76043;PMS7003;64740;34.694;33.088;2023-04-01T14:36:04;2.4;1.3;0.9
76043;PMS7003;64740;34.694;33.088;2023-04-01T14:41:42;2.2;1.5;1.1
76043;PMS7003;64740;34.694;33.088;2023-04-01T14:46:48;2.1;1;0.8
76043;PMS7003;64740;34.694;33.088;2023-04-01T14:51:32;2.1;1.3;1
76043;PMS7003;64740;34.694;33.088;2023-04-01T14:56:07;2.1;1.2;0.9
76043;PMS7003;64740;34.694;33.088;2023-04-01T15:01:09;3.1;1.5;1
76043;PMS7003;64740;34.694;33.088;2023-04-01T15:06:24;2.4;1.6;1.1
76043;PMS7003;64740;34.694;33.088;2023-04-01T15:11:44;3.6;3.2;2.5
76043;PMS7003;64740;34.694;33.088;2023-04-01T15:16:31;5.4;4.3;3
76043;PMS7003;64740;34.694;33.088;2023-04-01T15:21:33;5.8;4.2;3.1
76043;PMS7003;64740;34.694;33.088;2023-04-01T15:26:25;3.5;2.3;2
76043;PMS7003;64740;34.694;33.088;2023-04-01T15:31:27;3.4;1.7;1.2
76043;PMS7003;64740;34.694;33.088;2023-04-01T15:36:37;3;2.4;1.6
76043;PMS7003;64740;34.694;33.088;2023-04-01T15:41:06;3.2;2.2;1.6
76043;PMS7003;64740;34.694;33.088;2023-04-01T15:46:13;2.9;2.4;1.7
76043;PMS7003;64740;34.694;33.088;2023-04-01T15:51:10;3.9;3.4;2.4
76043;PMS7003;64740;34.694;33.088;2023-04-01T15:56:42;4.1;2.8;2.2
76043;PMS7003;64740;34.694;33.088;2023-04-01T16:01:26;5;3.7;2.9
76043;PMS7003;64740;34.694;33.088;2023-04-01T16:06:36;4.9;3.5;2.6
76043;PMS7003;64740;34.694;33.088;2023-04-01T16:11:15;3.8;2.8;2
76043;PMS7003;64740;34.694;33.088;2023-04-01T16:16:00;4.1;3;2.3
76043;PMS7003;64740;34.694;33.088;2023-04-01T16:21:23;3.7;2.8;2.2
76043;PMS7003;64740;34.694;33.088;2023-04-01T16:26:39;3.7;2.8;2
76043;PMS7003;64740;34.694;33.088;2023-04-01T16:31:30;5.1;3.3;2.5
76043;PMS7003;64740;34.694;33.088;2023-04-01T16:36:20;3.7;3;2.1
76043;PMS7003;64740;34.694;33.088;2023-04-01T16:41:24;4.2;3.3;2.3
76043;PMS7003;64740;34.694;33.088;2023-04-01T16:46:33;5.6;4.1;3
76043;PMS7003;64740;34.694;33.088;2023-04-01T16:51:40;5.7;4.3;3.5
76043;PMS7003;64740;34.694;33.088;2023-04-01T16:56:21;4.5;3.7;2.8
76043;PMS7003;64740;34.694;33.088;2023-04-01T17:01:06;5.6;4.4;3.1
76043;PMS7003;64740;34.694;33.088;2023-04-01T17:06:02;5.8;5.1;3.8
76043;PMS7003;64740;34.694;33.088;2023-04-01T17:11:34;6.7;5.8;4.6
76043;PMS7003;64740;34.694;33.088;2023-04-01T17:16:46;5.9;4.5;3.3
76043;PMS7003;64740;34.694;33.088;2023-04-01T17:21:32;5.8;4.8;3.4
76043;PMS7003;64740;34.694;33.088;2023-04-01T17:26:08;7.2;5.9;4.3
76043;PMS7003;64740;34.694;33.088;2023-04-01T17:31:29;6.1;4.4;3.4
76043;PMS7003;64740;34.694;33.088;2023-04-01T17:36:26;5.4;4.8;3.8
76043;PMS7003;64740;34.694;33.088;2023-04-01T17:41:34;5.5;4.2;3.1
76043;PMS7003;64740;34.694;33.088;2023-04-01T17:46:23;4.7;3.1;2.6
76043;PMS7003;64740;34.694;33.088;2023-04-01T17:51:35;5.3;4.1;3
76043;PMS7003;64740;34.694;33.088;2023-04-01T17:56:21;4.6;3.5;2.8
76043;PMS7003;64740;34.694;33.088;2023-04-01T18:01:05;5.4;4;3
76043;PMS7003;64740;34.694;33.088;2023-04-01T18:06:34;4.8;3.7;2.8
76043;PMS7003;64740;34.694;33.088;2023-04-01T18:11:33;5.7;4.7;3.7
76043;PMS7003;64740;34.694;33.088;2023-04-01T18:16:28;4.8;4;3
76043;PMS7003;64740;34.694;33.088;2023-04-01T18:21:17;4.5;4;3.1
76043;PMS7003;64740;34.694;33.088;2023-04-01T18:26:18;5.5;4.3;3.2
76043;PMS7003;64740;34.694;33.088;2023-04-01T18:31:37;5.7;4.5;3.5
76043;PMS7003;64740;34.694;33.088;2023-04-01T18:36:33;5.4;4.4;3.3
76043;PMS7003;64740;34.694;33.088;2023-04-01T18:41:15;5.3;4.4;3.4
76043;PMS7003;64740;34.694;33.088;2023-04-01T18:46:27;5.3;4.7;3.6
76043;PMS7003;64740;34.694;33.088;2023-04-01T18:51:16;5.5;4.8;3.7
76043;PMS7003;64740;34.694;33.088;2023-04-01T18:56:39;5.8;4.8;3.6
76043;PMS7003;64740;34.694;33.088;2023-04-01T19:01:33;7.2;5;3.7
76043;PMS7003;64740;34.694;33.088;2023-04-01T19:05:58;4.9;4.1;3.1
76043;PMS7003;64740;34.694;33.088;2023-04-01T19:11:06;7.1;5.3;3.8
76043;PMS7003;64740;34.694;33.088;2023-04-01T19:16:00;6;5;3.7
76043;PMS7003;64740;34.694;33.088;2023-04-01T19:21:39;5.7;5.3;4.1
76043;PMS7003;64740;34.694;33.088;2023-04-01T19:26:32;7.4;6.1;4.7
76043;PMS7003;64740;34.694;33.088;2023-04-01T19:31:30;7.8;7.3;5.6
76043;PMS7003;64740;34.694;33.088;2023-04-01T19:36:16;9.6;8.1;6.5
76043;PMS7003;64740;34.694;33.088;2023-04-01T19:41:10;9.7;7.9;6.1
76043;PMS7003;64740;34.694;33.088;2023-04-01T19:46:32;9.2;7.2;5.4
76043;PMS7003;64740;34.694;33.088;2023-04-01T19:51:23;6.8;5.8;4.4
76043;PMS7003;64740;34.694;33.088;2023-04-01T19:56:15;7.1;6.2;4.8
76043;PMS7003;64740;34.694;33.088;2023-04-01T20:01:07;8.9;7.4;5.9
76043;PMS7003;64740;34.694;33.088;2023-04-01T20:06:07;6.8;5.5;4.2
76043;PMS7003;64740;34.694;33.088;2023-04-01T20:11:41;6.5;5.3;3.9
76043;PMS7003;64740;34.694;33.088;2023-04-01T20:16:37;6.5;5;4
76043;PMS7003;64740;34.694;33.088;2023-04-01T20:20:59;5.9;4.7;3.6
76043;PMS7003;64740;34.694;33.088;2023-04-01T20:25:57;5.3;4.3;3.3
76043;PMS7003;64740;34.694;33.088;2023-04-01T20:31:18;5.3;4.5;3.5
76043;PMS7003;64740;34.694;33.088;2023-04-01T20:36:39;6;5.2;4.1
76043;PMS7003;64740;34.694;33.088;2023-04-01T20:41:28;6.3;5.1;3.9
76043;PMS7003;64740;34.694;33.088;2023-04-01T20:46:19;5.5;4;3.2
76043;PMS7003;64740;34.694;33.088;2023-04-01T20:51:13;5.7;4.8;3.8
76043;PMS7003;64740;34.694;33.088;2023-04-01T20:56:32;6.3;5.5;4.4
76043;PMS7003;64740;34.694;33.088;2023-04-01T21:01:39;6.9;5.8;4.6
76043;PMS7003;64740;34.694;33.088;2023-04-01T21:06:21;7.1;6.6;5.1
76043;PMS7003;64740;34.694;33.088;2023-04-01T21:11:16;7;6.1;4.8
76043;PMS7003;64740;34.694;33.088;2023-04-01T21:16:12;6.6;6;4.7
76043;PMS7003;64740;34.694;33.088;2023-04-01T21:21:19;7.7;6.1;4.7
76043;PMS7003;64740;34.694;33.088;2023-04-01T21:26:40;9;6.9;5.4
76043;PMS7003;64740;34.694;33.088;2023-04-01T21:31:31;7;6;4.6
76043;PMS7003;64740;34.694;33.088;2023-04-01T21:36:17;5.4;4.4;3.4
76043;PMS7003;64740;34.694;33.088;2023-04-01T21:41:21;4.4;3.8;2.8
76043;PMS7003;64740;34.694;33.088;2023-04-01T21:46:22;5.6;4.2;3.3
76043;PMS7003;64740;34.694;33.088;2023-04-01T21:51:51;5.1;4.2;3.4
76043;PMS7003;64740;34.694;33.088;2023-04-01T21:56:43;5;4.7;3.6
76043;PMS7003;64740;34.694;33.088;2023-04-01T22:01:27;4.6;4.1;3.2
76043;PMS7003;64740;34.694;33.088;2023-04-01T22:06:00;4.5;3.4;2.5
76043;PMS7003;64740;34.694;33.088;2023-04-01T22:10:58;5.2;3.7;3
76043;PMS7003;64740;34.694;33.088;2023-04-01T22:16:39;4.7;3.9;3.1
76043;PMS7003;64740;34.694;33.088;2023-04-01T22:21:29;5;4.1;3.2
76043;PMS7003;64740;34.694;33.088;2023-04-01T22:26:15;4.5;3.9;3.1
76043;PMS7003;64740;34.694;33.088;2023-04-01T22:30:58;4.4;3.4;2.6
76043;PMS7003;64740;34.694;33.088;2023-04-01T22:36:37;4;3.1;2.4
76043;PMS7003;64740;34.694;33.088;2023-04-01T22:41:27;3.9;3.2;2.4
76043;PMS7003;64740;34.694;33.088;2023-04-01T22:46:02;3;2.3;1.8
76043;PMS7003;64740;34.694;33.088;2023-04-01T22:51:21;2.9;2.4;1.6
76043;PMS7003;64740;34.694;33.088;2023-04-01T22:56:18;3.4;2.4;1.8
76043;PMS7003;64740;34.694;33.088;2023-04-01T23:01:36;2.9;2.3;1.7
76043;PMS7003;64740;34.694;33.088;2023-04-01T23:06:22;3.1;2.4;1.9
76043;PMS7003;64740;34.694;33.088;2023-04-01T23:11:12;3.1;2.2;1.7
76043;PMS7003;64740;34.694;33.088;2023-04-01T23:16:22;2.8;2.2;1.7
76043;PMS7003;64740;34.694;33.088;2023-04-01T23:21:08;2.8;2.5;1.9
76043;PMS7003;64740;34.694;33.088;2023-04-01T23:26:36;2.9;2.2;1.8
76043;PMS7003;64740;34.694;33.088;2023-04-01T23:31:27;3.9;2.9;2.3
76043;PMS7003;64740;34.694;33.088;2023-04-01T23:36:17;2.9;2.4;1.9
76043;PMS7003;64740;34.694;33.088;2023-04-01T23:41:22;3.6;2.8;2.1
76043;PMS7003;64740;34.694;33.088;2023-04-01T23:46:07;3.8;2.8;2.3
76043;PMS7003;64740;34.694;33.088;2023-04-01T23:51:36;4;3;2.3
76043;PMS7003;64740;34.694;33.088;2023-04-01T23:56:03;4.2;3;2.4
